createdAt,value
2018-02-09T00:01:36.155Z,20.93
2018-02-09T00:04:04.423Z,23.80
2018-02-09T00:06:32.716Z,23.70
2018-02-09T00:09:01.007Z,21.70
2018-02-09T00:11:29.301Z,21.80
2018-02-09T00:13:57.704Z,22.67
2018-02-09T00:16:25.968Z,20.60
2018-02-09T00:18:54.250Z,22.20
2018-02-09T00:21:22.611Z,19.87
2018-02-09T00:23:50.987Z,22.30
2018-02-09T00:26:19.263Z,21.20
2018-02-09T00:28:47.537Z,21.00
2018-02-09T00:31:15.859Z,22.17
2018-02-09T00:33:45.018Z,23.13
2018-02-09T00:36:13.273Z,23.97
2018-02-09T00:38:41.556Z,20.30
2018-02-09T00:41:09.817Z,22.50
2018-02-09T00:43:38.100Z,22.47
2018-02-09T00:46:06.403Z,19.17
2018-02-09T00:48:34.781Z,20.97
2018-02-09T00:51:03.162Z,23.20
2018-02-09T00:53:31.411Z,22.20
2018-02-09T00:55:59.719Z,22.83
2018-02-09T00:58:27.992Z,23.20
2018-02-09T01:00:56.473Z,22.60
2018-02-09T01:03:24.723Z,22.90
2018-02-09T01:05:53.000Z,24.70
2018-02-09T01:08:21.289Z,24.70
2018-02-09T01:10:49.577Z,20.47
2018-02-09T01:13:17.843Z,23.07
2018-02-09T01:15:46.134Z,21.10
2018-02-09T01:18:14.440Z,22.37
2018-02-09T01:20:42.796Z,19.50
2018-02-09T01:23:11.076Z,22.70
2018-02-09T01:25:39.356Z,21.87
2018-02-09T01:28:07.625Z,21.37
2018-02-09T01:30:35.976Z,25.03
2018-02-09T01:33:04.231Z,22.87
2018-02-09T01:35:33.303Z,24.17
2018-02-09T01:38:01.574Z,22.13
2018-02-09T01:40:29.858Z,24.80
2018-02-09T01:42:58.119Z,24.13
2018-02-09T01:45:26.406Z,22.57
2018-02-09T01:47:54.684Z,21.97
2018-02-09T01:50:22.974Z,22.73
2018-02-09T01:52:51.236Z,22.70
2018-02-09T01:55:19.573Z,23.67
2018-02-09T01:57:48.598Z,22.90
2018-02-09T02:00:16.903Z,22.57
2018-02-09T02:02:45.173Z,24.50
2018-02-09T02:05:14.199Z,22.60
2018-02-09T02:07:42.483Z,21.50
2018-02-09T02:10:10.772Z,23.23
2018-02-09T02:12:39.168Z,22.83
2018-02-09T02:15:07.427Z,23.80
2018-02-09T02:17:35.721Z,23.00
2018-02-09T02:20:04.762Z,23.80
2018-02-09T02:22:33.039Z,21.87
2018-02-09T02:25:01.311Z,23.00
2018-02-09T02:27:29.617Z,22.80
2018-02-09T02:29:57.892Z,23.30
2018-02-09T02:32:26.180Z,22.03
2018-02-09T02:34:54.448Z,25.67
2018-02-09T02:37:22.735Z,21.10
2018-02-09T02:39:51.005Z,23.20
2018-02-09T02:42:19.308Z,22.67
2018-02-09T02:44:47.584Z,26.70
2018-02-09T02:47:15.882Z,22.80
2018-02-09T02:49:44.150Z,23.10
2018-02-09T02:52:12.724Z,25.03
2018-02-09T02:54:40.980Z,23.90
2018-02-09T02:57:09.240Z,25.40
2018-02-09T02:59:37.659Z,23.40
2018-02-09T03:02:06.048Z,25.27
2018-02-09T03:04:34.336Z,21.30
2018-02-09T03:07:02.613Z,23.87
2018-02-09T03:09:30.905Z,22.50
2018-02-09T03:11:59.944Z,24.93
2018-02-09T03:14:28.227Z,24.77
2018-02-09T03:16:56.519Z,23.00
2018-02-09T03:19:24.813Z,24.67
2018-02-09T03:21:53.326Z,22.83
2018-02-09T03:24:22.487Z,23.70
2018-02-09T03:26:50.750Z,26.30
2018-02-09T03:29:19.028Z,22.93
2018-02-09T03:31:47.293Z,23.20
2018-02-09T03:34:15.581Z,25.17
2018-02-09T03:36:43.845Z,26.60
2018-02-09T03:39:12.149Z,23.30
2018-02-09T03:41:40.424Z,25.27
2018-02-09T03:44:08.787Z,23.13
2018-02-09T03:46:37.081Z,24.13
2018-02-09T03:49:05.460Z,24.73
2018-02-09T03:51:33.748Z,23.80
2018-02-09T03:54:02.123Z,24.07
2018-02-09T03:56:30.413Z,24.23
2018-02-09T03:58:58.687Z,23.07
2018-02-09T04:01:26.988Z,21.67
2018-02-09T04:03:55.277Z,23.60
2018-02-09T04:06:23.585Z,23.87
2018-02-09T04:08:51.870Z,23.87
2018-02-09T04:11:20.171Z,20.35
2018-02-09T04:13:49.224Z,26.95
2018-02-09T04:16:17.524Z,22.70
2018-02-09T04:18:45.952Z,21.95
2018-02-09T04:21:14.244Z,22.90
2018-02-09T04:23:43.304Z,25.25
2018-02-09T04:26:11.609Z,22.45
2018-02-09T04:28:39.896Z,22.70
2018-02-09T04:31:08.372Z,21.90
2018-02-09T04:33:36.652Z,20.25
2018-02-09T04:36:05.715Z,23.35
2018-02-09T04:38:34.113Z,22.05
2018-02-09T04:41:02.400Z,23.35
2018-02-09T04:43:30.692Z,23.95
2018-02-09T04:45:59.768Z,19.58
2018-02-09T04:48:28.064Z,22.35
2018-02-09T04:50:57.151Z,20.40
2018-02-09T04:53:26.238Z,22.65
2018-02-09T04:55:54.523Z,21.55
2018-02-09T04:58:23.106Z,24.83
2018-02-09T05:00:51.527Z,20.75
2018-02-09T05:03:19.844Z,24.73
2018-02-09T05:05:48.124Z,20.42
2018-02-09T05:08:16.438Z,25.42
2018-02-09T05:10:45.491Z,24.25
2018-02-09T05:13:13.817Z,22.37
2018-02-09T05:15:42.983Z,25.00
2018-02-09T05:18:11.280Z,26.23
2018-02-09T05:20:40.335Z,24.05
2018-02-09T05:23:08.639Z,26.98
2018-02-09T05:25:36.928Z,22.35
2018-02-09T05:28:05.993Z,26.13
2018-02-09T05:30:34.292Z,25.80
2018-02-09T05:33:02.616Z,27.63
2018-02-09T05:35:30.892Z,25.90
2018-02-09T05:37:59.172Z,27.40
2018-02-09T05:40:27.544Z,29.80
2018-02-09T05:42:55.825Z,26.60
2018-02-09T05:45:24.128Z,27.43
2018-02-09T05:47:52.432Z,26.00
2018-02-09T05:50:20.848Z,23.80
2018-02-09T05:52:49.129Z,25.03
2018-02-09T05:55:17.488Z,28.38
2018-02-09T05:57:45.764Z,26.97
2018-02-09T06:00:14.161Z,26.70
2018-02-09T06:02:42.552Z,28.30
2018-02-09T06:05:10.924Z,28.35
2018-02-09T06:07:39.196Z,30.07
2018-02-09T06:10:07.576Z,30.10
2018-02-09T06:12:35.875Z,27.87
2018-02-09T06:15:04.236Z,30.65
2018-02-09T06:17:32.617Z,27.40
2018-02-09T06:20:00.938Z,30.37
2018-02-09T06:22:29.215Z,30.75
2018-02-09T06:24:57.535Z,30.67
2018-02-09T06:27:25.925Z,30.23
2018-02-09T06:29:54.208Z,30.75
2018-02-09T06:32:22.517Z,31.98
2018-02-09T06:34:51.564Z,31.30
2018-02-09T06:37:19.877Z,31.35
2018-02-09T06:39:48.912Z,30.30
2018-02-09T06:42:17.228Z,27.67
2018-02-09T06:44:45.505Z,33.38
2018-02-09T06:47:13.795Z,34.47
2018-02-09T06:49:42.209Z,31.07
2018-02-09T06:52:10.465Z,31.97
2018-02-09T06:54:39.535Z,32.42
2018-02-09T06:57:07.814Z,32.17
2018-02-09T06:59:36.104Z,31.33
2018-02-09T07:02:05.170Z,30.95
2018-02-09T07:04:33.466Z,32.30
2018-02-09T07:07:01.790Z,33.22
2018-02-09T07:09:30.068Z,29.67
2018-02-09T07:11:58.372Z,31.70
2018-02-09T07:14:26.655Z,33.87
2018-02-09T07:16:54.968Z,32.22
2018-02-09T07:19:23.255Z,26.00
2018-02-09T07:21:52.522Z,28.63
2018-02-09T07:24:20.873Z,26.48
2018-02-09T07:26:49.148Z,28.17
2018-02-09T07:29:17.458Z,27.93
2018-02-09T07:31:45.720Z,26.43
2018-02-09T07:34:14.037Z,26.97
2018-02-09T07:36:43.117Z,27.93
2018-02-09T07:39:11.412Z,27.23
2018-02-09T07:41:40.457Z,30.03
2018-02-09T07:44:08.755Z,28.03
2018-02-09T07:46:37.029Z,28.90
2018-02-09T07:49:05.364Z,28.77
2018-02-09T07:51:33.704Z,26.97
2018-02-09T07:54:01.988Z,29.40
2018-02-09T07:56:30.264Z,27.00
2018-02-09T07:58:58.590Z,29.90
2018-02-09T08:01:26.893Z,27.53
2018-02-09T08:03:55.188Z,27.67
2018-02-09T08:06:23.471Z,28.20
2018-02-09T08:08:51.776Z,27.50
2018-02-09T08:11:20.844Z,26.27
2018-02-09T08:13:49.099Z,28.27
2018-02-09T08:16:17.386Z,29.90
2018-02-09T08:18:45.653Z,28.80
2018-02-09T08:21:14.044Z,32.07
2018-02-09T08:23:42.320Z,29.87
2018-02-09T08:26:10.701Z,30.00
2018-02-09T08:28:38.956Z,28.17
2018-02-09T08:31:07.254Z,28.67
2018-02-09T08:33:35.736Z,28.67
2018-02-09T08:36:04.007Z,31.23
2018-02-09T08:38:32.272Z,29.40
2018-02-09T08:41:00.567Z,30.30
2018-02-09T08:43:28.845Z,26.20
2018-02-09T08:45:57.223Z,29.07
2018-02-09T08:48:25.491Z,26.70
2018-02-09T08:50:53.768Z,28.40
2018-02-09T08:53:22.037Z,25.93
2018-02-09T08:55:50.537Z,35.90
2018-02-09T08:58:18.824Z,29.43
2018-02-09T09:00:47.192Z,28.00
2018-02-09T09:03:15.486Z,30.07
2018-02-09T09:05:43.764Z,31.53
2018-02-09T09:08:12.056Z,27.63
2018-02-09T09:10:41.101Z,27.90
2018-02-09T09:13:09.411Z,26.90
2018-02-09T09:15:38.360Z,29.93
2018-02-09T09:18:06.653Z,32.30
2018-02-09T09:20:34.922Z,30.37
2018-02-09T09:23:03.200Z,31.20
2018-02-09T09:25:31.480Z,31.50
2018-02-09T09:27:59.774Z,31.53
2018-02-09T09:30:28.052Z,30.20
2018-02-09T09:32:56.345Z,31.40
2018-02-09T09:35:24.613Z,31.57
2018-02-09T09:37:52.905Z,29.87
2018-02-09T09:40:21.184Z,30.40
2018-02-09T09:42:49.468Z,28.03
2018-02-09T09:45:18.508Z,33.00
2018-02-09T09:47:46.796Z,32.87
2018-02-09T09:50:15.064Z,30.40
2018-02-09T09:52:43.377Z,31.10
2018-02-09T09:55:11.648Z,30.47
2018-02-09T09:57:39.925Z,30.47
2018-02-09T10:00:08.221Z,28.50
2018-02-09T10:02:40.405Z,32.13
2018-02-09T10:05:09.469Z,29.10
2018-02-09T10:07:37.844Z,30.57
2018-02-09T10:10:06.130Z,31.77
2018-02-09T10:12:34.412Z,28.97
2018-02-09T10:15:02.700Z,31.80
2018-02-09T10:17:31.746Z,30.03
2018-02-09T10:20:00.025Z,30.37
2018-02-09T10:22:28.297Z,35.77
2018-02-09T10:24:56.601Z,29.77
2018-02-09T10:27:24.893Z,29.90
2018-02-09T10:29:53.944Z,29.60
2018-02-09T10:32:22.224Z,28.60
2018-02-09T10:34:50.514Z,26.93
2018-02-09T10:37:18.907Z,30.20
2018-02-09T10:39:47.178Z,24.97
2018-02-09T10:42:15.444Z,27.53
2018-02-09T10:44:43.768Z,27.13
2018-02-09T10:47:12.809Z,23.90
2018-02-09T10:49:41.093Z,25.30
2018-02-09T10:52:09.371Z,25.27
2018-02-09T10:54:37.641Z,25.40
2018-02-09T10:57:05.929Z,22.37
2018-02-09T10:59:34.200Z,22.00
2018-02-09T11:02:02.487Z,22.97
2018-02-09T11:04:30.777Z,24.93
2018-02-09T11:06:59.257Z,25.50
2018-02-09T11:09:31.542Z,24.83
2018-02-09T11:12:01.612Z,22.67
2018-02-09T11:14:29.888Z,23.47
2018-02-09T11:16:58.171Z,24.47
2018-02-09T11:19:26.477Z,23.77
2018-02-09T11:21:54.755Z,22.50
2018-02-09T11:24:23.017Z,23.00
2018-02-09T11:26:51.321Z,24.17
2018-02-09T11:29:19.712Z,24.10
2018-02-09T11:31:48.005Z,22.87
2018-02-09T11:34:16.381Z,22.37
2018-02-09T11:36:44.668Z,26.07
2018-02-09T11:39:12.948Z,20.77
2018-02-09T11:41:42.038Z,20.40
2018-02-09T11:44:10.300Z,20.40
2018-02-09T11:46:38.593Z,20.73
2018-02-09T11:49:07.644Z,20.63
2018-02-09T11:51:35.947Z,20.87
2018-02-09T11:54:04.196Z,20.53
2018-02-09T11:56:32.545Z,21.30
2018-02-09T11:59:00.791Z,21.37
2018-02-09T12:01:29.081Z,21.20
2018-02-09T12:03:58.163Z,21.47
2018-02-09T12:06:26.433Z,21.17
2018-02-09T12:08:54.726Z,20.30
2018-02-09T12:11:23.011Z,19.70
2018-02-09T12:13:51.372Z,21.10
2018-02-09T12:16:19.751Z,21.00
2018-02-09T12:18:48.041Z,20.83
2018-02-09T12:21:17.117Z,21.17
2018-02-09T12:23:45.524Z,20.73
2018-02-09T12:26:14.700Z,20.20
2018-02-09T12:28:42.989Z,19.87
2018-02-09T12:31:11.350Z,20.60
2018-02-09T12:33:39.628Z,20.77
2018-02-09T12:36:08.025Z,22.17
2018-02-09T12:38:37.079Z,22.73
2018-02-09T12:41:05.356Z,21.40
2018-02-09T12:43:33.763Z,23.47
2018-02-09T12:46:02.042Z,22.37
2018-02-09T12:48:30.314Z,22.80
2018-02-09T12:50:58.658Z,21.70
2018-02-09T12:53:26.976Z,22.67
2018-02-09T12:55:55.265Z,22.43
2018-02-09T12:58:25.040Z,24.83
2018-02-09T13:00:53.335Z,22.80
2018-02-09T13:03:21.629Z,22.50
2018-02-09T13:05:49.973Z,22.47
2018-02-09T13:08:18.244Z,21.40
2018-02-09T13:10:46.531Z,21.93
2018-02-09T13:13:14.816Z,21.97
2018-02-09T13:15:43.105Z,28.63
2018-02-09T13:18:23.208Z,23.30
2018-02-09T13:20:51.476Z,24.63
2018-02-09T13:23:32.418Z,23.87
2018-02-09T13:26:00.688Z,24.27
2018-02-09T13:28:40.784Z,24.77
2018-02-09T13:31:09.060Z,24.80
2018-02-09T13:33:38.220Z,23.70
2018-02-09T13:36:06.475Z,24.70
2018-02-09T13:38:34.879Z,25.90
2018-02-09T13:41:03.136Z,24.20
2018-02-09T13:43:31.437Z,24.47
2018-02-09T13:45:59.909Z,23.07
2018-02-09T13:48:28.341Z,24.93
2018-02-09T13:50:57.380Z,24.80
2018-02-09T13:53:25.686Z,22.70
2018-02-09T13:55:54.742Z,22.87
2018-02-09T13:58:23.004Z,30.67
2018-02-09T14:00:51.298Z,22.40
2018-02-09T14:03:19.585Z,23.97
2018-02-09T14:05:47.881Z,22.83
2018-02-09T14:08:16.349Z,24.03
2018-02-09T14:10:44.644Z,23.53
2018-02-09T14:13:12.916Z,25.27
2018-02-09T14:15:41.284Z,24.80
2018-02-09T14:18:09.553Z,25.03
2018-02-09T14:20:37.867Z,24.50
2018-02-09T14:23:06.133Z,23.87
2018-02-09T14:25:34.416Z,26.07
2018-02-09T14:28:03.456Z,34.05
2018-02-09T14:30:31.740Z,39.70
2018-02-09T14:33:00.025Z,28.53
2018-02-09T14:35:29.313Z,28.07
2018-02-09T14:37:57.588Z,28.63
2018-02-09T14:40:25.998Z,29.07
2018-02-09T14:42:54.275Z,29.30
2018-02-09T14:45:22.553Z,29.67
2018-02-09T14:47:50.933Z,29.57
2018-02-09T14:50:19.231Z,30.03
2018-02-09T14:52:47.693Z,32.53
2018-02-09T14:55:15.964Z,31.90
2018-02-09T14:57:44.256Z,32.23
2018-02-09T15:00:14.041Z,31.37
2018-02-09T15:02:42.446Z,33.17
2018-02-09T15:05:10.725Z,31.13
2018-02-09T15:07:39.054Z,33.57
2018-02-09T15:10:07.317Z,30.07
2018-02-09T15:12:35.750Z,33.00
2018-02-09T15:15:04.004Z,31.23
2018-02-09T15:17:32.272Z,30.47
2018-02-09T15:20:00.564Z,29.57
2018-02-09T15:22:28.836Z,28.80
2018-02-09T15:24:57.240Z,31.73
2018-02-09T15:27:25.493Z,32.07
2018-02-09T15:29:53.775Z,30.60
2018-02-09T15:32:22.665Z,32.70
2018-02-09T15:34:50.967Z,32.80
2018-02-09T15:37:19.233Z,34.10
2018-02-09T15:39:47.732Z,31.33
2018-02-09T15:42:16.114Z,29.10
2018-02-09T15:44:46.015Z,30.97
2018-02-09T15:47:14.316Z,27.73
2018-02-09T15:49:42.587Z,28.90
2018-02-09T15:52:11.662Z,31.80
2018-02-09T15:54:39.940Z,30.50
2018-02-09T15:57:08.217Z,30.90
2018-02-09T15:59:36.508Z,29.80
2018-02-09T16:02:04.876Z,28.40
2018-02-09T16:04:33.165Z,33.50
2018-02-09T16:07:01.441Z,31.73
2018-02-09T16:09:29.711Z,38.77
2018-02-09T16:11:58.003Z,38.40
2018-02-09T16:14:27.052Z,30.90
2018-02-09T16:16:55.356Z,31.90
2018-02-09T16:19:24.390Z,31.87
2018-02-09T16:21:52.682Z,31.80
2018-02-09T16:24:20.944Z,33.20
2018-02-09T16:26:49.243Z,30.80
2018-02-09T16:29:17.504Z,34.13
2018-02-09T16:31:45.803Z,32.90
2018-02-09T16:34:14.085Z,32.50
2018-02-09T16:36:42.476Z,31.23
2018-02-09T16:39:10.780Z,32.00
2018-02-09T16:41:39.941Z,34.40
2018-02-09T16:44:08.321Z,30.53
2018-02-09T16:46:36.588Z,31.03
2018-02-09T16:49:04.977Z,31.17
2018-02-09T16:51:33.254Z,32.93
2018-02-09T16:54:01.549Z,33.30
2018-02-09T16:56:29.824Z,37.83
2018-02-09T16:58:58.129Z,33.47
2018-02-09T17:01:27.190Z,30.50
2018-02-09T17:03:55.480Z,31.70
2018-02-09T17:06:23.765Z,31.20
2018-02-09T17:08:52.222Z,31.33
2018-02-09T17:11:20.483Z,31.47
2018-02-09T17:13:48.769Z,30.57
2018-02-09T17:16:17.074Z,33.40
2018-02-09T17:18:45.356Z,32.27
2018-02-09T17:21:14.420Z,32.10
2018-02-09T17:23:42.689Z,30.03
2018-02-09T17:26:10.988Z,31.77
2018-02-09T17:28:39.383Z,29.37
2018-02-09T17:31:07.672Z,33.53
2018-02-09T17:33:36.703Z,33.17
2018-02-09T17:36:05.054Z,31.53
2018-02-09T17:38:33.389Z,29.80
2018-02-09T17:41:01.685Z,30.67
2018-02-09T17:43:30.041Z,29.60
2018-02-09T17:45:58.425Z,28.37
2018-02-09T17:48:26.738Z,30.20
2018-02-09T17:50:55.783Z,30.47
2018-02-09T17:53:24.061Z,30.67
2018-02-09T17:55:52.456Z,30.90
2018-02-09T17:58:20.720Z,30.60
2018-02-09T18:00:49.111Z,30.60
2018-02-09T18:03:17.377Z,31.90
2018-02-09T18:05:45.668Z,32.37
2018-02-09T18:08:13.933Z,37.57
2018-02-09T18:10:42.217Z,31.03
2018-02-09T18:13:10.475Z,32.83
2018-02-09T18:15:38.754Z,31.47
2018-02-09T18:18:07.037Z,31.63
2018-02-09T18:20:35.358Z,28.67
2018-02-09T18:23:03.609Z,35.00
2018-02-09T18:25:31.948Z,34.60
2018-02-09T18:28:00.176Z,35.50
2018-02-09T18:30:29.255Z,34.60
2018-02-09T18:32:57.560Z,31.63
2018-02-09T18:35:26.607Z,30.70
2018-02-09T18:37:54.897Z,31.80
2018-02-09T18:40:23.173Z,33.77
2018-02-09T18:42:51.604Z,29.87
2018-02-09T18:45:19.849Z,32.80
2018-02-09T18:47:48.212Z,31.50
2018-02-09T18:50:16.484Z,32.27
2018-02-09T18:52:44.779Z,31.83
2018-02-09T18:55:13.033Z,33.77
2018-02-09T18:57:41.320Z,31.00
2018-02-09T19:00:09.583Z,32.37
2018-02-09T19:02:37.883Z,29.87
2018-02-09T19:05:06.175Z,33.20
2018-02-09T19:07:34.457Z,33.40
2018-02-09T19:10:02.743Z,32.70
2018-02-09T19:12:31.811Z,30.40
2018-02-09T19:15:00.185Z,33.27
2018-02-09T19:17:28.451Z,32.03
2018-02-09T19:19:56.744Z,32.77
2018-02-09T19:22:25.007Z,35.00
2018-02-09T19:24:53.296Z,34.80
2018-02-09T19:27:21.568Z,33.40
2018-02-09T19:29:49.851Z,32.93
2018-02-09T19:32:18.111Z,33.90
2018-02-09T19:34:46.508Z,32.07
2018-02-09T19:37:14.795Z,30.50
2018-02-09T19:39:43.084Z,33.43
2018-02-09T19:42:11.351Z,32.50
2018-02-09T19:44:39.644Z,34.57
2018-02-09T19:47:08.691Z,34.63
2018-02-09T19:49:37.693Z,33.87
2018-02-09T19:52:06.006Z,33.83
2018-02-09T19:54:34.387Z,31.90
2018-02-09T19:57:03.437Z,29.07
2018-02-09T19:59:31.696Z,32.87
2018-02-09T20:01:59.984Z,32.23
2018-02-09T20:04:28.260Z,33.70
2018-02-09T20:06:56.539Z,34.73
2018-02-09T20:09:24.815Z,32.40
2018-02-09T20:11:53.157Z,34.47
2018-02-09T20:14:22.192Z,35.07
2018-02-09T20:16:50.481Z,32.83
2018-02-09T20:19:18.758Z,31.77
2018-02-09T20:21:47.068Z,36.13
2018-02-09T20:24:16.104Z,36.03
2018-02-09T20:26:44.379Z,33.70
2018-02-09T20:29:12.667Z,31.53
2018-02-09T20:31:40.931Z,34.07
2018-02-09T20:34:10.100Z,34.37
2018-02-09T20:36:39.141Z,33.97
2018-02-09T20:39:07.419Z,32.50
2018-02-09T20:41:35.695Z,33.83
2018-02-09T20:44:04.006Z,31.00
2018-02-09T20:46:32.275Z,32.90
2018-02-09T20:49:00.774Z,34.80
2018-02-09T20:51:29.063Z,33.80
2018-02-09T20:53:58.124Z,34.73
2018-02-09T20:56:26.510Z,34.00
2018-02-09T20:58:54.801Z,35.60
2018-02-09T21:01:23.067Z,33.93
2018-02-09T21:03:51.345Z,37.60
2018-02-09T21:06:19.621Z,34.13
2018-02-09T21:08:47.909Z,35.40
2018-02-09T21:11:16.274Z,43.43
2018-02-09T21:13:44.551Z,35.93
2018-02-09T21:16:12.835Z,34.03
2018-02-09T21:18:41.105Z,36.13
2018-02-09T21:21:09.398Z,36.53
2018-02-09T21:23:37.665Z,33.50
2018-02-09T21:26:05.940Z,38.40
2018-02-09T21:28:34.215Z,34.43
2018-02-09T21:31:02.497Z,34.07
2018-02-09T21:33:30.768Z,34.80
2018-02-09T21:35:59.046Z,33.70
2018-02-09T21:38:27.944Z,33.33
2018-02-09T21:40:56.280Z,36.10
2018-02-09T21:43:24.533Z,34.47
2018-02-09T21:45:53.560Z,36.00
2018-02-09T21:48:21.873Z,37.80
2018-02-09T21:50:50.151Z,35.57
2018-02-09T21:53:18.456Z,34.10
2018-02-09T21:55:47.491Z,32.90
2018-02-09T21:58:15.788Z,33.87
2018-02-09T22:00:44.074Z,35.70
2018-02-09T22:03:12.373Z,34.47
2018-02-09T22:05:40.727Z,33.50
2018-02-09T22:08:09.104Z,34.90
2018-02-09T22:10:37.368Z,36.10
2018-02-09T22:13:05.670Z,39.00
2018-02-09T22:15:33.934Z,39.90
2018-02-09T22:18:02.240Z,38.73
2018-02-09T22:20:30.510Z,39.70
2018-02-09T22:22:58.828Z,35.97
2018-02-09T22:25:27.839Z,36.37
2018-02-09T22:27:56.119Z,37.07
2018-02-09T22:30:24.451Z,36.77
2018-02-09T22:32:52.697Z,34.07
2018-02-09T22:35:21.079Z,37.37
2018-02-09T22:37:49.336Z,35.73
2018-02-09T22:40:17.612Z,38.47
2018-02-09T22:42:45.884Z,34.13
2018-02-09T22:45:14.163Z,34.50
2018-02-09T22:47:42.460Z,38.43
2018-02-09T22:50:10.731Z,36.37
2018-02-09T22:52:38.995Z,33.87
2018-02-09T22:55:07.401Z,36.43
2018-02-09T22:57:35.671Z,38.00
2018-02-09T23:00:03.952Z,40.80
2018-02-09T23:02:32.231Z,37.23
2018-02-09T23:05:00.551Z,38.23
2018-02-09T23:07:29.584Z,35.50
2018-02-09T23:09:57.860Z,38.70
2018-02-09T23:12:26.134Z,34.70
2018-02-09T23:14:54.407Z,36.27
2018-02-09T23:17:22.691Z,38.10
2018-02-09T23:19:50.973Z,35.47
2018-02-09T23:22:19.617Z,37.13
2018-02-09T23:24:48.077Z,36.43
2018-02-09T23:27:16.340Z,39.30
2018-02-09T23:29:45.260Z,40.17
2018-02-09T23:32:13.543Z,35.27
2018-02-09T23:34:41.919Z,38.33
2018-02-09T23:37:10.285Z,37.10
2018-02-09T23:39:38.536Z,38.50
2018-02-09T23:42:06.817Z,36.23
2018-02-09T23:44:35.080Z,38.13
2018-02-09T23:47:03.360Z,39.67
2018-02-09T23:49:31.623Z,40.07
2018-02-09T23:52:00.656Z,37.07
2018-02-09T23:54:28.939Z,37.10
2018-02-09T23:56:57.211Z,37.17
2018-02-09T23:59:25.511Z,37.10
